sensor_id;sensor_type;location;lat;lon;timestamp;temperature;humidity
65854;DHT22;52627;48.838;2.402;2024-01-07T00:00:08;7.77;71.87
65854;DHT22;52627;48.838;2.402;2024-01-07T00:02:36;7.78;71.88
65854;DHT22;52627;48.838;2.402;2024-01-07T00:05:03;7.78;71.86
65854;DHT22;52627;48.838;2.402;2024-01-07T00:07:31;7.78;71.82
65854;DHT22;52627;48.838;2.402;2024-01-07T00:09:58;7.77;71.80
65854;DHT22;52627;48.838;2.402;2024-01-07T00:12:25;7.77;71.79
65854;DHT22;52627;48.838;2.402;2024-01-07T00:14:52;7.77;71.72
65854;DHT22;52627;48.838;2.402;2024-01-07T00:17:18;7.76;71.70
65854;DHT22;52627;48.838;2.402;2024-01-07T00:19:45;7.75;71.70
65854;DHT22;52627;48.838;2.402;2024-01-07T00:22:12;7.74;71.64
65854;DHT22;52627;48.838;2.402;2024-01-07T00:24:39;7.72;71.60
65854;DHT22;52627;48.838;2.402;2024-01-07T00:27:06;7.71;71.60
65854;DHT22;52627;48.838;2.402;2024-01-07T00:29:34;7.70;71.59
65854;DHT22;52627;48.838;2.402;2024-01-07T00:32:02;7.69;71.56
65854;DHT22;52627;48.838;2.402;2024-01-07T00:34:29;7.66;71.50
65854;DHT22;52627;48.838;2.402;2024-01-07T00:36:56;7.64;71.48
65854;DHT22;52627;48.838;2.402;2024-01-07T00:39:23;7.61;71.45
65854;DHT22;52627;48.838;2.402;2024-01-07T00:41:50;7.60;71.49
65854;DHT22;52627;48.838;2.402;2024-01-07T00:44:16;7.60;71.51
65854;DHT22;52627;48.838;2.402;2024-01-07T00:46:43;7.60;71.50
65854;DHT22;52627;48.838;2.402;2024-01-07T00:49:14;7.61;71.52
65854;DHT22;52627;48.838;2.402;2024-01-07T00:51:43;7.61;71.50
65854;DHT22;52627;48.838;2.402;2024-01-07T00:54:10;7.59;71.46
65854;DHT22;52627;48.838;2.402;2024-01-07T00:56:36;7.58;71.40
65854;DHT22;52627;48.838;2.402;2024-01-07T00:59:03;7.56;71.34
65854;DHT22;52627;48.838;2.402;2024-01-07T01:01:30;7.52;71.33
65854;DHT22;52627;48.838;2.402;2024-01-07T01:03:58;7.50;71.34
65854;DHT22;52627;48.838;2.402;2024-01-07T01:06:25;7.49;71.31
65854;DHT22;52627;48.838;2.402;2024-01-07T01:08:52;7.49;71.30
65854;DHT22;52627;48.838;2.402;2024-01-07T01:11:19;7.49;71.36
65854;DHT22;52627;48.838;2.402;2024-01-07T01:13:46;7.49;71.33
65854;DHT22;52627;48.838;2.402;2024-01-07T01:16:13;7.49;71.26
65854;DHT22;52627;48.838;2.402;2024-01-07T01:18:39;7.46;71.21
65854;DHT22;52627;48.838;2.402;2024-01-07T01:21:06;7.44;71.20
65854;DHT22;52627;48.838;2.402;2024-01-07T01:23:34;7.45;71.20
65854;DHT22;52627;48.838;2.402;2024-01-07T01:26:01;7.46;71.24
65854;DHT22;52627;48.838;2.402;2024-01-07T01:28:28;7.45;71.24
65854;DHT22;52627;48.838;2.402;2024-01-07T01:30:54;7.43;71.25
65854;DHT22;52627;48.838;2.402;2024-01-07T01:33:21;7.41;71.21
65854;DHT22;52627;48.838;2.402;2024-01-07T01:35:49;7.39;71.20
65854;DHT22;52627;48.838;2.402;2024-01-07T01:38:16;7.37;71.17
65854;DHT22;52627;48.838;2.402;2024-01-07T01:40:43;7.34;71.15
65854;DHT22;52627;48.838;2.402;2024-01-07T01:43:10;7.33;71.09
65854;DHT22;52627;48.838;2.402;2024-01-07T01:45:37;7.30;71.09
65854;DHT22;52627;48.838;2.402;2024-01-07T01:48:04;7.29;71.08
65854;DHT22;52627;48.838;2.402;2024-01-07T01:50:31;7.29;71.02
65854;DHT22;52627;48.838;2.402;2024-01-07T01:52:58;7.28;71.01
65854;DHT22;52627;48.838;2.402;2024-01-07T01:55:25;7.29;71.01
65854;DHT22;52627;48.838;2.402;2024-01-07T01:57:52;7.27;70.98
65854;DHT22;52627;48.838;2.402;2024-01-07T02:00:20;7.26;71.00
65854;DHT22;52627;48.838;2.402;2024-01-07T02:02:47;7.25;70.91
65854;DHT22;52627;48.838;2.402;2024-01-07T02:05:14;7.25;70.91
65854;DHT22;52627;48.838;2.402;2024-01-07T02:07:41;7.26;70.92
65854;DHT22;52627;48.838;2.402;2024-01-07T02:10:08;7.27;70.90
65854;DHT22;52627;48.838;2.402;2024-01-07T02:12:35;7.26;70.82
65854;DHT22;52627;48.838;2.402;2024-01-07T02:15:02;7.25;70.84
65854;DHT22;52627;48.838;2.402;2024-01-07T02:17:29;7.25;70.83
65854;DHT22;52627;48.838;2.402;2024-01-07T02:19:56;7.23;70.80
65854;DHT22;52627;48.838;2.402;2024-01-07T02:22:23;7.22;70.80
65854;DHT22;52627;48.838;2.402;2024-01-07T02:24:50;7.23;70.79
65854;DHT22;52627;48.838;2.402;2024-01-07T02:27:17;7.21;70.73
65854;DHT22;52627;48.838;2.402;2024-01-07T02:29:44;7.21;70.78
65854;DHT22;52627;48.838;2.402;2024-01-07T02:32:10;7.20;70.71
65854;DHT22;52627;48.838;2.402;2024-01-07T02:34:37;7.20;70.70
65854;DHT22;52627;48.838;2.402;2024-01-07T02:37:04;7.19;70.70
65854;DHT22;52627;48.838;2.402;2024-01-07T02:39:31;7.18;70.70
65854;DHT22;52627;48.838;2.402;2024-01-07T02:41:58;7.20;70.70
65854;DHT22;52627;48.838;2.402;2024-01-07T02:44:25;7.21;70.61
65854;DHT22;52627;48.838;2.402;2024-01-07T02:46:51;7.22;70.66
65854;DHT22;52627;48.838;2.402;2024-01-07T02:49:18;7.23;70.61
65854;DHT22;52627;48.838;2.402;2024-01-07T02:51:45;7.23;70.60
65854;DHT22;52627;48.838;2.402;2024-01-07T02:54:15;7.23;70.59
65854;DHT22;52627;48.838;2.402;2024-01-07T02:56:43;7.23;70.50
65854;DHT22;52627;48.838;2.402;2024-01-07T02:59:09;7.21;70.44
65854;DHT22;52627;48.838;2.402;2024-01-07T03:01:36;7.22;70.47
65854;DHT22;52627;48.838;2.402;2024-01-07T03:04:07;7.22;70.40
65854;DHT22;52627;48.838;2.402;2024-01-07T03:06:36;7.22;70.33
65854;DHT22;52627;48.838;2.402;2024-01-07T03:09:03;7.22;70.35
65854;DHT22;52627;48.838;2.402;2024-01-07T03:11:30;7.23;70.32
65854;DHT22;52627;48.838;2.402;2024-01-07T03:13:57;7.21;70.27
65854;DHT22;52627;48.838;2.402;2024-01-07T03:16:24;7.21;70.30
65854;DHT22;52627;48.838;2.402;2024-01-07T03:18:52;7.22;70.22
65854;DHT22;52627;48.838;2.402;2024-01-07T03:21:20;7.20;70.18
65854;DHT22;52627;48.838;2.402;2024-01-07T03:23:49;7.20;70.20
65854;DHT22;52627;48.838;2.402;2024-01-07T03:26:17;7.22;70.13
65854;DHT22;52627;48.838;2.402;2024-01-07T03:28:47;7.21;70.07
65854;DHT22;52627;48.838;2.402;2024-01-07T03:31:15;7.20;70.01
65854;DHT22;52627;48.838;2.402;2024-01-07T03:33:42;7.19;70.00
65854;DHT22;52627;48.838;2.402;2024-01-07T03:36:10;7.16;69.92
65854;DHT22;52627;48.838;2.402;2024-01-07T03:38:39;7.13;69.90
65854;DHT22;52627;48.838;2.402;2024-01-07T03:41:07;7.11;69.86
65854;DHT22;52627;48.838;2.402;2024-01-07T03:43:34;7.11;69.85
65854;DHT22;52627;48.838;2.402;2024-01-07T03:46:01;7.10;69.79
65854;DHT22;52627;48.838;2.402;2024-01-07T03:48:28;7.09;69.73
65854;DHT22;52627;48.838;2.402;2024-01-07T03:50:55;7.09;69.70
65854;DHT22;52627;48.838;2.402;2024-01-07T03:53:21;7.10;69.67
65854;DHT22;52627;48.838;2.402;2024-01-07T03:55:48;7.10;69.67
65854;DHT22;52627;48.838;2.402;2024-01-07T03:58:15;7.11;69.63
65854;DHT22;52627;48.838;2.402;2024-01-07T04:00:42;7.09;69.56
65854;DHT22;52627;48.838;2.402;2024-01-07T04:03:08;7.08;69.50
65854;DHT22;52627;48.838;2.402;2024-01-07T04:05:36;7.08;69.46
65854;DHT22;52627;48.838;2.402;2024-01-07T04:08:04;7.07;69.39
65854;DHT22;52627;48.838;2.402;2024-01-07T04:10:31;7.05;69.29
65854;DHT22;52627;48.838;2.402;2024-01-07T04:12:58;7.04;69.24
65854;DHT22;52627;48.838;2.402;2024-01-07T04:15:25;7.03;69.22
65854;DHT22;52627;48.838;2.402;2024-01-07T04:17:52;7.01;69.20
65854;DHT22;52627;48.838;2.402;2024-01-07T04:20:19;7.02;69.16
65854;DHT22;52627;48.838;2.402;2024-01-07T04:22:46;7.01;69.10
65854;DHT22;52627;48.838;2.402;2024-01-07T04:25:13;6.99;69.07
65854;DHT22;52627;48.838;2.402;2024-01-07T04:27:40;6.96;69.00
65854;DHT22;52627;48.838;2.402;2024-01-07T04:30:07;6.95;68.98
65854;DHT22;52627;48.838;2.402;2024-01-07T04:32:34;6.94;68.93
65854;DHT22;52627;48.838;2.402;2024-01-07T04:35:01;6.93;68.90
65854;DHT22;52627;48.838;2.402;2024-01-07T04:37:28;6.94;68.90
65854;DHT22;52627;48.838;2.402;2024-01-07T04:39:55;6.93;68.89
65854;DHT22;52627;48.838;2.402;2024-01-07T04:42:22;6.93;68.86
65854;DHT22;52627;48.838;2.402;2024-01-07T04:44:48;6.94;68.87
65854;DHT22;52627;48.838;2.402;2024-01-07T04:47:31;6.95;68.81
65854;DHT22;52627;48.838;2.402;2024-01-07T04:50:03;6.93;68.75
65854;DHT22;52627;48.838;2.402;2024-01-07T04:52:31;6.93;68.78
65854;DHT22;52627;48.838;2.402;2024-01-07T04:54:57;6.93;68.74
65854;DHT22;52627;48.838;2.402;2024-01-07T04:57:24;6.95;68.71
65854;DHT22;52627;48.838;2.402;2024-01-07T04:59:51;6.94;68.70
65854;DHT22;52627;48.838;2.402;2024-01-07T05:02:18;6.94;68.71
65854;DHT22;52627;48.838;2.402;2024-01-07T05:04:46;6.95;68.70
65854;DHT22;52627;48.838;2.402;2024-01-07T05:07:13;6.94;68.63
65854;DHT22;52627;48.838;2.402;2024-01-07T05:09:40;6.91;68.64
65854;DHT22;52627;48.838;2.402;2024-01-07T05:12:06;6.91;68.69
65854;DHT22;52627;48.838;2.402;2024-01-07T05:14:33;6.92;68.66
65854;DHT22;52627;48.838;2.402;2024-01-07T05:17:00;6.92;68.60
65854;DHT22;52627;48.838;2.402;2024-01-07T05:19:27;6.91;68.60
65854;DHT22;52627;48.838;2.402;2024-01-07T05:21:54;6.91;68.60
65854;DHT22;52627;48.838;2.402;2024-01-07T05:24:21;6.90;68.60
65854;DHT22;52627;48.838;2.402;2024-01-07T05:26:48;6.89;68.60
65854;DHT22;52627;48.838;2.402;2024-01-07T05:29:15;6.89;68.60
65854;DHT22;52627;48.838;2.402;2024-01-07T05:31:42;6.90;68.61
65854;DHT22;52627;48.838;2.402;2024-01-07T05:34:09;6.88;68.62
65854;DHT22;52627;48.838;2.402;2024-01-07T05:36:36;6.88;68.63
65854;DHT22;52627;48.838;2.402;2024-01-07T05:39:03;6.90;68.61
65854;DHT22;52627;48.838;2.402;2024-01-07T05:41:31;6.90;68.60
65854;DHT22;52627;48.838;2.402;2024-01-07T05:43:58;6.89;68.60
65854;DHT22;52627;48.838;2.402;2024-01-07T05:46:24;6.88;68.60
65854;DHT22;52627;48.838;2.402;2024-01-07T05:48:51;6.88;68.60
65854;DHT22;52627;48.838;2.402;2024-01-07T05:51:18;6.87;68.60
65854;DHT22;52627;48.838;2.402;2024-01-07T05:53:45;6.86;68.63
65854;DHT22;52627;48.838;2.402;2024-01-07T05:56:13;6.86;68.68
65854;DHT22;52627;48.838;2.402;2024-01-07T05:58:40;6.84;68.65
65854;DHT22;52627;48.838;2.402;2024-01-07T06:01:07;6.80;68.64
65854;DHT22;52627;48.838;2.402;2024-01-07T06:03:35;6.76;68.70
65854;DHT22;52627;48.838;2.402;2024-01-07T06:06:02;6.77;68.71
65854;DHT22;52627;48.838;2.402;2024-01-07T06:08:29;6.74;68.73
65854;DHT22;52627;48.838;2.402;2024-01-07T06:10:56;6.74;68.77
65854;DHT22;52627;48.838;2.402;2024-01-07T06:13:23;6.75;68.81
65854;DHT22;52627;48.838;2.402;2024-01-07T06:15:50;6.75;68.80
65854;DHT22;52627;48.838;2.402;2024-01-07T06:18:18;6.73;68.82
65854;DHT22;52627;48.838;2.402;2024-01-07T06:20:45;6.71;68.87
65854;DHT22;52627;48.838;2.402;2024-01-07T06:23:12;6.71;68.90
65854;DHT22;52627;48.838;2.402;2024-01-07T06:25:38;6.67;68.90
65854;DHT22;52627;48.838;2.402;2024-01-07T06:28:05;6.68;68.95
65854;DHT22;52627;48.838;2.402;2024-01-07T06:30:33;6.66;68.98
65854;DHT22;52627;48.838;2.402;2024-01-07T06:33:00;6.65;69.00
65854;DHT22;52627;48.838;2.402;2024-01-07T06:35:27;6.59;69.00
65854;DHT22;52627;48.838;2.402;2024-01-07T06:37:54;6.55;69.02
65854;DHT22;52627;48.838;2.402;2024-01-07T06:40:21;6.55;69.10
65854;DHT22;52627;48.838;2.402;2024-01-07T06:42:49;6.56;69.12
65854;DHT22;52627;48.838;2.402;2024-01-07T06:45:16;6.55;69.16
65854;DHT22;52627;48.838;2.402;2024-01-07T06:47:44;6.53;69.19
65854;DHT22;52627;48.838;2.402;2024-01-07T06:50:11;6.52;69.22
65854;DHT22;52627;48.838;2.402;2024-01-07T06:52:38;6.51;69.30
65854;DHT22;52627;48.838;2.402;2024-01-07T06:55:05;6.53;69.32
65854;DHT22;52627;48.838;2.402;2024-01-07T06:57:32;6.53;69.38
65854;DHT22;52627;48.838;2.402;2024-01-07T06:59:59;6.51;69.40
65854;DHT22;52627;48.838;2.402;2024-01-07T07:02:26;6.51;69.48
65854;DHT22;52627;48.838;2.402;2024-01-07T07:04:53;6.49;69.53
65854;DHT22;52627;48.838;2.402;2024-01-07T07:07:20;6.52;69.60
65854;DHT22;52627;48.838;2.402;2024-01-07T07:09:46;6.53;69.60
65854;DHT22;52627;48.838;2.402;2024-01-07T07:12:13;6.55;69.60
65854;DHT22;52627;48.838;2.402;2024-01-07T07:14:40;6.59;69.60
65854;DHT22;52627;48.838;2.402;2024-01-07T07:17:07;6.60;69.61
65854;DHT22;52627;48.838;2.402;2024-01-07T07:19:34;6.60;69.60
65854;DHT22;52627;48.838;2.402;2024-01-07T07:22:01;6.60;69.62
65854;DHT22;52627;48.838;2.402;2024-01-07T07:24:28;6.60;69.60
65854;DHT22;52627;48.838;2.402;2024-01-07T07:26:54;6.60;69.62
65854;DHT22;52627;48.838;2.402;2024-01-07T07:29:21;6.61;69.62
65854;DHT22;52627;48.838;2.402;2024-01-07T07:31:48;6.62;69.63
65854;DHT22;52627;48.838;2.402;2024-01-07T07:34:15;6.62;69.63
65854;DHT22;52627;48.838;2.402;2024-01-07T07:36:42;6.63;69.61
65854;DHT22;52627;48.838;2.402;2024-01-07T07:39:13;6.61;69.60
65854;DHT22;52627;48.838;2.402;2024-01-07T07:41:41;6.59;69.54
65854;DHT22;52627;48.838;2.402;2024-01-07T07:44:08;6.58;69.53
65854;DHT22;52627;48.838;2.402;2024-01-07T07:46:34;6.58;69.50
65854;DHT22;52627;48.838;2.402;2024-01-07T07:49:01;6.58;69.46
65854;DHT22;52627;48.838;2.402;2024-01-07T07:51:28;6.54;69.41
65854;DHT22;52627;48.838;2.402;2024-01-07T07:53:56;6.53;69.40
65854;DHT22;52627;48.838;2.402;2024-01-07T07:56:23;6.53;69.40
65854;DHT22;52627;48.838;2.402;2024-01-07T07:58:50;6.55;69.40
65854;DHT22;52627;48.838;2.402;2024-01-07T08:01:17;6.57;69.35
65854;DHT22;52627;48.838;2.402;2024-01-07T08:03:44;6.58;69.30
65854;DHT22;52627;48.838;2.402;2024-01-07T08:06:12;6.59;69.30
65854;DHT22;52627;48.838;2.402;2024-01-07T08:08:39;6.61;69.29
65854;DHT22;52627;48.838;2.402;2024-01-07T08:11:05;6.62;69.21
65854;DHT22;52627;48.838;2.402;2024-01-07T08:13:35;6.63;69.20
65854;DHT22;52627;48.838;2.402;2024-01-07T08:16:04;6.64;69.11
65854;DHT22;52627;48.838;2.402;2024-01-07T08:18:32;6.63;69.03
65854;DHT22;52627;48.838;2.402;2024-01-07T08:20:59;6.61;69.01
65854;DHT22;52627;48.838;2.402;2024-01-07T08:23:26;6.61;68.98
65854;DHT22;52627;48.838;2.402;2024-01-07T08:25:53;6.60;68.90
65854;DHT22;52627;48.838;2.402;2024-01-07T08:28:20;6.59;68.87
65854;DHT22;52627;48.838;2.402;2024-01-07T08:30:47;6.58;68.80
65854;DHT22;52627;48.838;2.402;2024-01-07T08:33:15;6.58;68.76
65854;DHT22;52627;48.838;2.402;2024-01-07T08:35:42;6.58;68.77
65854;DHT22;52627;48.838;2.402;2024-01-07T08:38:09;6.57;68.73
65854;DHT22;52627;48.838;2.402;2024-01-07T08:40:36;6.55;68.69
65854;DHT22;52627;48.838;2.402;2024-01-07T08:43:03;6.54;68.70
65854;DHT22;52627;48.838;2.402;2024-01-07T08:45:30;6.56;68.64
65854;DHT22;52627;48.838;2.402;2024-01-07T08:47:57;6.55;68.51
65854;DHT22;52627;48.838;2.402;2024-01-07T08:50:24;6.55;68.48
65854;DHT22;52627;48.838;2.402;2024-01-07T08:52:51;6.57;68.32
65854;DHT22;52627;48.838;2.402;2024-01-07T08:55:18;6.56;68.23
65854;DHT22;52627;48.838;2.402;2024-01-07T08:57:45;6.56;68.19
65854;DHT22;52627;48.838;2.402;2024-01-07T09:00:15;6.58;68.11
65854;DHT22;52627;48.838;2.402;2024-01-07T09:02:43;6.58;68.04
65854;DHT22;52627;48.838;2.402;2024-01-07T09:05:10;6.57;67.97
65854;DHT22;52627;48.838;2.402;2024-01-07T09:07:38;6.57;67.93
65854;DHT22;52627;48.838;2.402;2024-01-07T09:10:05;6.59;67.91
65854;DHT22;52627;48.838;2.402;2024-01-07T09:12:37;6.60;67.91
65854;DHT22;52627;48.838;2.402;2024-01-07T09:15:04;6.62;67.91
65854;DHT22;52627;48.838;2.402;2024-01-07T09:17:35;6.63;67.84
65854;DHT22;52627;48.838;2.402;2024-01-07T09:20:05;6.62;67.71
65854;DHT22;52627;48.838;2.402;2024-01-07T09:22:34;6.61;67.61
65854;DHT22;52627;48.838;2.402;2024-01-07T09:25:02;6.59;67.52
65854;DHT22;52627;48.838;2.402;2024-01-07T09:27:30;6.59;67.49
65854;DHT22;52627;48.838;2.402;2024-01-07T09:29:58;6.59;67.43
65854;DHT22;52627;48.838;2.402;2024-01-07T09:32:25;6.59;67.34
65854;DHT22;52627;48.838;2.402;2024-01-07T09:34:52;6.59;67.27
65854;DHT22;52627;48.838;2.402;2024-01-07T09:37:19;6.59;67.18
65854;DHT22;52627;48.838;2.402;2024-01-07T09:39:46;6.58;67.13
65854;DHT22;52627;48.838;2.402;2024-01-07T09:42:14;6.58;67.11
65854;DHT22;52627;48.838;2.402;2024-01-07T09:44:43;6.58;67.09
65854;DHT22;52627;48.838;2.402;2024-01-07T09:47:11;6.59;66.99
65854;DHT22;52627;48.838;2.402;2024-01-07T09:49:39;6.58;66.97
65854;DHT22;52627;48.838;2.402;2024-01-07T09:52:08;6.59;66.91
65854;DHT22;52627;48.838;2.402;2024-01-07T09:54:38;6.59;66.90
65854;DHT22;52627;48.838;2.402;2024-01-07T09:57:07;6.60;66.89
65854;DHT22;52627;48.838;2.402;2024-01-07T09:59:35;6.59;66.86
65854;DHT22;52627;48.838;2.402;2024-01-07T10:02:03;6.59;66.79
65854;DHT22;52627;48.838;2.402;2024-01-07T10:04:30;6.58;66.78
65854;DHT22;52627;48.838;2.402;2024-01-07T10:06:58;6.59;66.80
65854;DHT22;52627;48.838;2.402;2024-01-07T10:09:29;6.60;66.74
65854;DHT22;52627;48.838;2.402;2024-01-07T10:11:59;6.62;66.71
65854;DHT22;52627;48.838;2.402;2024-01-07T10:14:26;6.63;66.72
65854;DHT22;52627;48.838;2.402;2024-01-07T10:16:55;6.66;66.70
65854;DHT22;52627;48.838;2.402;2024-01-07T10:19:23;6.66;66.64
65854;DHT22;52627;48.838;2.402;2024-01-07T10:22:01;6.66;66.63
65854;DHT22;52627;48.838;2.402;2024-01-07T10:24:37;6.69;66.61
65854;DHT22;52627;48.838;2.402;2024-01-07T10:27:06;6.70;66.62
65854;DHT22;52627;48.838;2.402;2024-01-07T10:29:34;6.69;66.60
65854;DHT22;52627;48.838;2.402;2024-01-07T10:32:02;6.70;66.54
65854;DHT22;52627;48.838;2.402;2024-01-07T10:34:33;6.72;66.51
65854;DHT22;52627;48.838;2.402;2024-01-07T10:37:02;6.75;66.50
65854;DHT22;52627;48.838;2.402;2024-01-07T10:39:34;6.75;66.50
65854;DHT22;52627;48.838;2.402;2024-01-07T10:42:02;6.77;66.49
65854;DHT22;52627;48.838;2.402;2024-01-07T10:44:30;6.79;66.46
65854;DHT22;52627;48.838;2.402;2024-01-07T10:46:59;6.81;66.40
65854;DHT22;52627;48.838;2.402;2024-01-07T10:49:27;6.79;66.37
65854;DHT22;52627;48.838;2.402;2024-01-07T10:54:30;6.79;66.29
65854;DHT22;52627;48.838;2.402;2024-01-07T10:57:02;6.80;66.29
65854;DHT22;52627;48.838;2.402;2024-01-07T10:59:38;6.80;66.24
65854;DHT22;52627;48.838;2.402;2024-01-07T11:02:07;6.81;66.22
65854;DHT22;52627;48.838;2.402;2024-01-07T11:07:15;6.83;66.22
65854;DHT22;52627;48.838;2.402;2024-01-07T11:10:06;6.83;66.22
65854;DHT22;52627;48.838;2.402;2024-01-07T11:12:39;6.84;66.20
65854;DHT22;52627;48.838;2.402;2024-01-07T11:15:06;6.83;66.19
65854;DHT22;52627;48.838;2.402;2024-01-07T11:20:07;6.84;66.18
65854;DHT22;52627;48.838;2.402;2024-01-07T11:22:46;6.84;66.10
65854;DHT22;52627;48.838;2.402;2024-01-07T11:25:29;6.82;66.10
65854;DHT22;52627;48.838;2.402;2024-01-07T11:27:59;6.82;66.10
65854;DHT22;52627;48.838;2.402;2024-01-07T11:30:28;6.84;66.10
65854;DHT22;52627;48.838;2.402;2024-01-07T11:32:56;6.84;66.10
65854;DHT22;52627;48.838;2.402;2024-01-07T11:38:22;6.83;66.10
65854;DHT22;52627;48.838;2.402;2024-01-07T11:40:49;6.83;66.09
65854;DHT22;52627;48.838;2.402;2024-01-07T11:43:17;6.82;66.10
65854;DHT22;52627;48.838;2.402;2024-01-07T11:45:45;6.83;66.10
65854;DHT22;52627;48.838;2.402;2024-01-07T11:48:12;6.83;66.10
65854;DHT22;52627;48.838;2.402;2024-01-07T11:50:39;6.83;66.11
65854;DHT22;52627;48.838;2.402;2024-01-07T11:53:06;6.84;66.11
65854;DHT22;52627;48.838;2.402;2024-01-07T11:55:34;6.84;66.11
65854;DHT22;52627;48.838;2.402;2024-01-07T11:58:03;6.82;66.10
65854;DHT22;52627;48.838;2.402;2024-01-07T12:00:30;6.81;66.20
65854;DHT22;52627;48.838;2.402;2024-01-07T12:02:59;6.79;66.20
65854;DHT22;52627;48.838;2.402;2024-01-07T12:05:30;6.79;66.25
65854;DHT22;52627;48.838;2.402;2024-01-07T12:07:57;6.76;66.30
65854;DHT22;52627;48.838;2.402;2024-01-07T12:10:24;6.76;66.30
65854;DHT22;52627;48.838;2.402;2024-01-07T12:12:51;6.74;66.30
65854;DHT22;52627;48.838;2.402;2024-01-07T12:15:19;6.70;66.38
65854;DHT22;52627;48.838;2.402;2024-01-07T12:17:56;6.67;66.42
65854;DHT22;52627;48.838;2.402;2024-01-07T12:20:26;6.64;66.50
65854;DHT22;52627;48.838;2.402;2024-01-07T12:22:57;6.61;66.50
65854;DHT22;52627;48.838;2.402;2024-01-07T12:25:33;6.60;66.57
65854;DHT22;52627;48.838;2.402;2024-01-07T12:28:00;6.60;66.61
65854;DHT22;52627;48.838;2.402;2024-01-07T12:30:28;6.60;66.60
65854;DHT22;52627;48.838;2.402;2024-01-07T12:32:57;6.60;66.64
65854;DHT22;52627;48.838;2.402;2024-01-07T12:35:25;6.61;66.70
65854;DHT22;52627;48.838;2.402;2024-01-07T12:37:53;6.61;66.72
65854;DHT22;52627;48.838;2.402;2024-01-07T12:40:20;6.61;66.74
65854;DHT22;52627;48.838;2.402;2024-01-07T12:42:47;6.61;66.78
65854;DHT22;52627;48.838;2.402;2024-01-07T12:45:15;6.62;66.80
65854;DHT22;52627;48.838;2.402;2024-01-07T12:47:43;6.64;66.85
65854;DHT22;52627;48.838;2.402;2024-01-07T12:50:10;6.65;66.89
65854;DHT22;52627;48.838;2.402;2024-01-07T12:52:39;6.66;66.90
65854;DHT22;52627;48.838;2.402;2024-01-07T12:55:06;6.66;66.94
65854;DHT22;52627;48.838;2.402;2024-01-07T12:57:34;6.65;66.99
65854;DHT22;52627;48.838;2.402;2024-01-07T13:00:02;6.64;67.00
65854;DHT22;52627;48.838;2.402;2024-01-07T13:02:32;6.64;67.05
65854;DHT22;52627;48.838;2.402;2024-01-07T13:05:00;6.64;67.06
65854;DHT22;52627;48.838;2.402;2024-01-07T13:07:28;6.66;67.09
65854;DHT22;52627;48.838;2.402;2024-01-07T13:09:55;6.65;67.10
65854;DHT22;52627;48.838;2.402;2024-01-07T13:12:22;6.63;67.11
65854;DHT22;52627;48.838;2.402;2024-01-07T13:14:53;6.61;67.16
65854;DHT22;52627;48.838;2.402;2024-01-07T13:17:20;6.61;67.20
65854;DHT22;52627;48.838;2.402;2024-01-07T13:19:47;6.61;67.22
65854;DHT22;52627;48.838;2.402;2024-01-07T13:22:13;6.61;67.28
65854;DHT22;52627;48.838;2.402;2024-01-07T13:24:41;6.62;67.30
65854;DHT22;52627;48.838;2.402;2024-01-07T13:27:08;6.64;67.30
65854;DHT22;52627;48.838;2.402;2024-01-07T13:29:34;6.64;67.30
65854;DHT22;52627;48.838;2.402;2024-01-07T13:32:01;6.66;67.32
65854;DHT22;52627;48.838;2.402;2024-01-07T13:34:28;6.67;67.32
65854;DHT22;52627;48.838;2.402;2024-01-07T13:36:56;6.67;67.30
65854;DHT22;52627;48.838;2.402;2024-01-07T13:39:23;6.68;67.30
65854;DHT22;52627;48.838;2.402;2024-01-07T13:41:50;6.70;67.32
65854;DHT22;52627;48.838;2.402;2024-01-07T13:44:17;6.70;67.38
65854;DHT22;52627;48.838;2.402;2024-01-07T13:46:44;6.71;67.34
65854;DHT22;52627;48.838;2.402;2024-01-07T13:49:12;6.68;67.37
65854;DHT22;52627;48.838;2.402;2024-01-07T13:51:41;6.68;67.39
65854;DHT22;52627;48.838;2.402;2024-01-07T13:54:08;6.68;67.40
65854;DHT22;52627;48.838;2.402;2024-01-07T13:56:39;6.70;67.40
65854;DHT22;52627;48.838;2.402;2024-01-07T13:59:11;6.72;67.41
65854;DHT22;52627;48.838;2.402;2024-01-07T14:01:38;6.73;67.40
65854;DHT22;52627;48.838;2.402;2024-01-07T14:04:05;6.76;67.40
65854;DHT22;52627;48.838;2.402;2024-01-07T14:06:33;6.76;67.39
65854;DHT22;52627;48.838;2.402;2024-01-07T14:09:00;6.76;67.40
65854;DHT22;52627;48.838;2.402;2024-01-07T14:11:26;6.77;67.40
65854;DHT22;52627;48.838;2.402;2024-01-07T14:13:54;6.76;67.39
65854;DHT22;52627;48.838;2.402;2024-01-07T14:16:21;6.76;67.40
65854;DHT22;52627;48.838;2.402;2024-01-07T14:18:48;6.76;67.40
65854;DHT22;52627;48.838;2.402;2024-01-07T14:21:15;6.77;67.39
65854;DHT22;52627;48.838;2.402;2024-01-07T14:23:42;6.76;67.40
65854;DHT22;52627;48.838;2.402;2024-01-07T14:26:09;6.76;67.40
65854;DHT22;52627;48.838;2.402;2024-01-07T14:28:35;6.74;67.40
65854;DHT22;52627;48.838;2.402;2024-01-07T14:31:02;6.71;67.40
65854;DHT22;52627;48.838;2.402;2024-01-07T14:33:30;6.69;67.40
65854;DHT22;52627;48.838;2.402;2024-01-07T14:35:57;6.68;67.44
65854;DHT22;52627;48.838;2.402;2024-01-07T14:38:24;6.68;67.49
65854;DHT22;52627;48.838;2.402;2024-01-07T14:40:52;6.68;67.50
65854;DHT22;52627;48.838;2.402;2024-01-07T14:43:18;6.67;67.50
65854;DHT22;52627;48.838;2.402;2024-01-07T14:45:45;6.68;67.50
65854;DHT22;52627;48.838;2.402;2024-01-07T14:48:12;6.67;67.51
65854;DHT22;52627;48.838;2.402;2024-01-07T14:50:40;6.67;67.50
65854;DHT22;52627;48.838;2.402;2024-01-07T14:53:08;6.63;67.50
65854;DHT22;52627;48.838;2.402;2024-01-07T14:55:35;6.63;67.53
65854;DHT22;52627;48.838;2.402;2024-01-07T14:58:02;6.61;67.51
65854;DHT22;52627;48.838;2.402;2024-01-07T15:00:29;6.59;67.50
65854;DHT22;52627;48.838;2.402;2024-01-07T15:02:55;6.59;67.50
65854;DHT22;52627;48.838;2.402;2024-01-07T15:05:22;6.56;67.50
65854;DHT22;52627;48.838;2.402;2024-01-07T15:07:49;6.54;67.51
65854;DHT22;52627;48.838;2.402;2024-01-07T15:10:16;6.53;67.50
65854;DHT22;52627;48.838;2.402;2024-01-07T15:12:46;6.51;67.52
65854;DHT22;52627;48.838;2.402;2024-01-07T15:15:28;6.50;67.57
65854;DHT22;52627;48.838;2.402;2024-01-07T15:17:56;6.48;67.58
65854;DHT22;52627;48.838;2.402;2024-01-07T15:20:24;6.48;67.58
65854;DHT22;52627;48.838;2.402;2024-01-07T15:22:51;6.48;67.58
65854;DHT22;52627;48.838;2.402;2024-01-07T15:25:18;6.47;67.54
65854;DHT22;52627;48.838;2.402;2024-01-07T15:27:45;6.46;67.58
65854;DHT22;52627;48.838;2.402;2024-01-07T15:30:12;6.45;67.60
65854;DHT22;52627;48.838;2.402;2024-01-07T15:32:43;6.45;67.60
65854;DHT22;52627;48.838;2.402;2024-01-07T15:35:10;6.44;67.60
65854;DHT22;52627;48.838;2.402;2024-01-07T15:37:37;6.44;67.61
65854;DHT22;52627;48.838;2.402;2024-01-07T15:40:04;6.43;67.67
65854;DHT22;52627;48.838;2.402;2024-01-07T15:42:32;6.43;67.69
65854;DHT22;52627;48.838;2.402;2024-01-07T15:44:59;6.45;67.70
65854;DHT22;52627;48.838;2.402;2024-01-07T15:47:25;6.44;67.69
65854;DHT22;52627;48.838;2.402;2024-01-07T15:49:53;6.43;67.70
65854;DHT22;52627;48.838;2.402;2024-01-07T15:52:20;6.41;67.70
65854;DHT22;52627;48.838;2.402;2024-01-07T15:54:47;6.39;67.72
65854;DHT22;52627;48.838;2.402;2024-01-07T15:57:14;6.38;67.79